createdAt,value
2023-03-27T00:01:31.111Z,99210.02
2023-03-27T00:04:09.516Z,99209.35
2023-03-27T00:06:49.346Z,99207.56
2023-03-27T00:09:29.164Z,99205.70
2023-03-27T00:12:08.322Z,99205.98
2023-03-27T00:14:46.522Z,99204.23
2023-03-27T00:17:24.667Z,99203.09
2023-03-27T00:20:02.740Z,99204.55
2023-03-27T00:22:39.915Z,99206.11
2023-03-27T00:25:23.368Z,99200.67
2023-03-27T00:28:02.240Z,99195.55
2023-03-27T00:30:39.271Z,99193.17
2023-03-27T00:33:17.162Z,99193.27
2023-03-27T00:35:55.203Z,99194.20
2023-03-27T00:38:32.479Z,99196.38
2023-03-27T00:41:10.632Z,99192.40
2023-03-27T00:43:49.952Z,99188.76
2023-03-27T00:46:46.495Z,99185.94
2023-03-27T00:49:29.168Z,99184.30
2023-03-27T00:52:02.841Z,99182.69
2023-03-27T00:54:41.865Z,99182.81
2023-03-27T00:57:22.409Z,99176.87
2023-03-27T01:00:02.478Z,99171.46
2023-03-27T01:02:39.442Z,99170.31
2023-03-27T01:05:19.023Z,99168.24
2023-03-27T01:08:00.553Z,99165.77
2023-03-27T01:10:59.656Z,99161.95
2023-03-27T01:14:26.656Z,99161.77
2023-03-27T01:17:29.791Z,99167.06
2023-03-27T01:20:37.465Z,99168.71
2023-03-27T01:23:59.463Z,99174.02
2023-03-27T01:26:58.465Z,99180.45
2023-03-27T01:29:36.780Z,99181.72
2023-03-27T01:32:59.651Z,99182.12
2023-03-27T01:36:01.235Z,99181.14
2023-03-27T01:38:56.823Z,99178.48
2023-03-27T01:42:06.653Z,99176.17
2023-03-27T01:44:57.781Z,99177.06
2023-03-27T01:47:58.888Z,99183.09
2023-03-27T01:51:01.353Z,99186.42
2023-03-27T01:53:42.794Z,99188.36
2023-03-27T01:56:27.735Z,99191.05
2023-03-27T01:59:09.628Z,99193.00
2023-03-27T02:01:51.015Z,99199.90
2023-03-27T02:04:37.163Z,99200.38
2023-03-27T02:07:25.719Z,99206.29
2023-03-27T02:10:08.673Z,99205.60
2023-03-27T02:12:54.606Z,99203.75
2023-03-27T02:15:38.960Z,99200.35
2023-03-27T02:18:19.564Z,99201.74
2023-03-27T02:20:55.598Z,99200.98
2023-03-27T02:23:33.168Z,99199.64
2023-03-27T02:26:14.028Z,99198.60
2023-03-27T02:29:28.686Z,99195.39
2023-03-27T02:32:41.113Z,99197.35
2023-03-27T02:35:41.674Z,99201.86
2023-03-27T02:38:51.866Z,99202.19
2023-03-27T02:41:40.785Z,99200.36
2023-03-27T02:44:47.272Z,99203.75
2023-03-27T02:47:53.634Z,99201.33
2023-03-27T02:50:44.538Z,99210.05
2023-03-27T02:53:28.818Z,99211.61
2023-03-27T02:56:08.076Z,99210.61
2023-03-27T02:59:01.893Z,99201.52
2023-03-27T03:01:38.630Z,99195.36
2023-03-27T03:04:33.280Z,99192.92
2023-03-27T03:07:19.044Z,99194.73
2023-03-27T03:09:59.119Z,99195.34
2023-03-27T03:12:36.802Z,99197.52
2023-03-27T03:15:14.320Z,99196.98
2023-03-27T03:17:52.298Z,99197.23
2023-03-27T03:20:22.924Z,99203.65
2023-03-27T03:22:54.697Z,99202.58
2023-03-27T03:25:34.156Z,99210.42
2023-03-27T03:28:12.044Z,99208.68
2023-03-27T03:30:52.294Z,99204.28
2023-03-27T03:33:30.485Z,99198.58
2023-03-27T03:36:09.837Z,99199.63
2023-03-27T03:38:47.303Z,99199.37
2023-03-27T03:41:24.719Z,99204.39
2023-03-27T03:44:01.783Z,99201.23
2023-03-27T03:46:39.463Z,99199.72
2023-03-27T03:49:16.920Z,99201.94
2023-03-27T03:52:04.279Z,99209.39
2023-03-27T03:54:44.986Z,99207.60
2023-03-27T03:57:25.482Z,99208.60
2023-03-27T03:59:56.041Z,99213.91
2023-03-27T04:02:35.297Z,99212.83
2023-03-27T04:05:08.989Z,99211.81
2023-03-27T04:07:43.841Z,99214.37
2023-03-27T04:10:19.624Z,99215.77
2023-03-27T04:12:59.013Z,99214.91
2023-03-27T04:15:36.900Z,99219.69
2023-03-27T04:18:15.616Z,99223.04
2023-03-27T04:20:55.111Z,99226.48
2023-03-27T04:23:34.803Z,99228.12
2023-03-27T04:26:13.386Z,99225.10
2023-03-27T04:28:52.183Z,99223.92
2023-03-27T04:31:23.360Z,99223.66
2023-03-27T04:34:00.698Z,99224.65
2023-03-27T04:36:39.066Z,99227.64
2023-03-27T04:39:17.737Z,99227.02
2023-03-27T04:41:55.345Z,99230.31
2023-03-27T04:44:26.871Z,99231.73
2023-03-27T04:47:02.939Z,99236.56
2023-03-27T04:49:49.743Z,99243.64
2023-03-27T04:52:21.137Z,99246.30
2023-03-27T04:54:59.701Z,99247.07
2023-03-27T04:57:38.813Z,99242.73
2023-03-27T05:00:17.886Z,99244.56
2023-03-27T05:02:55.247Z,99242.88
2023-03-27T05:05:33.381Z,99246.06
2023-03-27T05:08:11.816Z,99252.98
2023-03-27T05:10:48.859Z,99256.21
2023-03-27T05:13:26.222Z,99256.98
2023-03-27T05:16:04.300Z,99262.54
2023-03-27T05:18:42.495Z,99257.05
2023-03-27T05:21:19.200Z,99255.52
2023-03-27T05:23:56.828Z,99258.58
2023-03-27T05:26:34.089Z,99259.42
2023-03-27T05:29:06.809Z,99254.63
2023-03-27T05:31:41.848Z,99253.36
2023-03-27T05:34:21.369Z,99261.09
2023-03-27T05:36:59.161Z,99264.18
2023-03-27T05:39:37.086Z,99266.05
2023-03-27T05:42:15.200Z,99267.09
2023-03-27T05:44:52.541Z,99272.45
2023-03-27T05:47:30.543Z,99272.45
2023-03-27T05:50:09.547Z,99272.97
2023-03-27T05:52:47.281Z,99278.67
2023-03-27T05:55:27.559Z,99280.17
2023-03-27T05:58:10.250Z,99285.52
2023-03-27T06:00:47.957Z,99288.53
2023-03-27T06:03:25.762Z,99289.09
2023-03-27T06:06:07.831Z,99288.99
2023-03-27T06:08:45.211Z,99293.10
2023-03-27T06:11:23.672Z,99293.20
2023-03-27T06:14:01.994Z,99295.12
2023-03-27T06:16:40.784Z,99293.60
2023-03-27T06:19:18.957Z,99294.92
2023-03-27T06:21:50.454Z,99303.48
2023-03-27T06:24:24.730Z,99304.46
2023-03-27T06:27:04.056Z,99311.47
2023-03-27T06:29:41.988Z,99308.77
2023-03-27T06:32:19.323Z,99308.51
2023-03-27T06:34:51.482Z,99313.86
2023-03-27T06:37:35.651Z,99316.93
2023-03-27T06:40:17.613Z,99323.34
2023-03-27T06:43:04.263Z,99325.68
2023-03-27T06:45:44.911Z,99324.39
2023-03-27T06:48:25.338Z,99326.20
2023-03-27T06:51:03.279Z,99326.85
2023-03-27T06:53:41.777Z,99324.98
2023-03-27T06:56:18.151Z,99328.15
2023-03-27T06:58:48.742Z,99328.20
2023-03-27T07:01:23.900Z,99333.42
2023-03-27T07:04:01.179Z,99336.70
2023-03-27T07:06:39.699Z,99339.52
2023-03-27T07:09:11.445Z,99336.33
2023-03-27T07:11:45.876Z,99338.73
2023-03-27T07:14:24.746Z,99342.81
2023-03-27T07:17:02.011Z,99345.73
2023-03-27T07:19:39.747Z,99344.98
2023-03-27T07:22:17.600Z,99345.73
2023-03-27T07:24:57.517Z,99344.77
2023-03-27T07:27:36.216Z,99346.24
2023-03-27T07:30:15.638Z,99349.71
2023-03-27T07:32:52.746Z,99349.90
2023-03-27T07:35:32.170Z,99351.95
2023-03-27T07:38:04.208Z,99354.84
2023-03-27T07:40:42.432Z,99351.44
2023-03-27T07:43:14.389Z,99355.80
2023-03-27T07:45:47.159Z,99359.80
2023-03-27T07:48:25.532Z,99357.20
2023-03-27T07:53:47.341Z,99356.84
2023-03-27T07:56:27.504Z,99359.48
2023-03-27T07:59:06.087Z,99360.73
2023-03-27T08:01:39.361Z,99363.69
2023-03-27T08:04:18.922Z,99369.02
2023-03-27T08:06:58.096Z,99370.76
2023-03-27T08:09:37.156Z,99377.83
2023-03-27T08:12:16.536Z,99379.64
2023-03-27T08:14:55.429Z,99380.89
2023-03-27T08:17:34.509Z,99381.73
2023-03-27T08:20:16.076Z,99387.94
2023-03-27T08:22:55.926Z,99397.07
2023-03-27T08:25:37.079Z,99400.04
2023-03-27T08:28:16.128Z,99406.69
2023-03-27T08:30:54.224Z,99410.84
2023-03-27T08:33:37.903Z,99415.25
2023-03-27T08:36:17.313Z,99417.38
2023-03-27T08:38:56.179Z,99415.80
2023-03-27T08:41:45.840Z,99422.17
2023-03-27T08:44:26.836Z,99425.14
2023-03-27T08:47:04.842Z,99427.59
2023-03-27T08:49:53.944Z,99431.02
2023-03-27T08:52:33.606Z,99432.29
2023-03-27T08:55:41.341Z,99440.83
2023-03-27T08:58:26.523Z,99440.15
2023-03-27T09:01:18.775Z,99444.35
2023-03-27T09:04:28.439Z,99448.52
2023-03-27T09:07:41.944Z,99452.34
2023-03-27T09:11:15.385Z,99446.52
2023-03-27T09:13:53.287Z,99448.34
2023-03-27T09:16:41.952Z,99445.88
2023-03-27T09:20:19.454Z,99450.61
2023-03-27T09:23:27.714Z,99451.25
2023-03-27T09:26:13.032Z,99459.08
2023-03-27T09:29:10.400Z,99468.56
2023-03-27T09:31:54.471Z,99476.48
2023-03-27T09:34:34.428Z,99477.77
2023-03-27T09:37:15.348Z,99481.31
2023-03-27T09:39:55.420Z,99482.47
2023-03-27T09:42:42.724Z,99487.53
2023-03-27T09:45:22.258Z,99488.21
2023-03-27T09:48:00.666Z,99490.23
2023-03-27T09:50:50.121Z,99495.08
2023-03-27T09:53:28.845Z,99499.64
2023-03-27T09:56:15.593Z,99498.15
2023-03-27T09:58:53.682Z,99508.35
2023-03-27T10:01:36.772Z,99505.14
2023-03-27T10:04:23.694Z,99511.09
2023-03-27T10:07:24.389Z,99514.05
2023-03-27T10:10:21.502Z,99515.80
2023-03-27T10:13:06.320Z,99515.98
2023-03-27T10:15:45.262Z,99522.09
2023-03-27T10:18:34.481Z,99522.67
2023-03-27T10:21:19.675Z,99529.95
2023-03-27T10:24:00.709Z,99531.52
2023-03-27T10:26:34.977Z,99537.83
2023-03-27T10:29:28.215Z,99536.42
2023-03-27T10:32:07.382Z,99539.35
2023-03-27T10:34:53.466Z,99540.17
2023-03-27T10:37:37.871Z,99538.64
2023-03-27T10:40:28.400Z,99543.21
2023-03-27T10:43:41.002Z,99543.73
2023-03-27T10:46:30.915Z,99542.55
2023-03-27T10:49:21.421Z,99540.02
2023-03-27T10:52:18.647Z,99534.70
2023-03-27T10:55:33.507Z,99541.14
2023-03-27T10:58:25.107Z,99542.41
2023-03-27T11:01:22.222Z,99540.51
2023-03-27T11:04:11.162Z,99538.38
2023-03-27T11:06:53.052Z,99545.13
2023-03-27T11:09:42.881Z,99547.14
2023-03-27T11:12:24.634Z,99547.02
2023-03-27T11:15:41.545Z,99548.36
2023-03-27T11:18:29.244Z,99547.95
2023-03-27T11:21:36.220Z,99548.98
2023-03-27T11:24:33.129Z,99548.41
2023-03-27T11:27:29.374Z,99546.70
2023-03-27T11:30:33.445Z,99551.94
2023-03-27T11:33:44.677Z,99553.61
2023-03-27T11:36:45.711Z,99550.31
2023-03-27T11:39:46.713Z,99550.66
2023-03-27T11:42:22.398Z,99548.11
2023-03-27T11:45:05.195Z,99548.05
2023-03-27T11:48:14.584Z,99550.15
2023-03-27T11:51:33.712Z,99547.55
2023-03-27T11:54:50.626Z,99546.96
2023-03-27T11:57:33.734Z,99549.74
2023-03-27T12:00:29.102Z,99548.94
2023-03-27T12:03:37.747Z,99552.20
2023-03-27T12:06:34.296Z,99548.59
2023-03-27T12:09:48.351Z,99543.42
2023-03-27T12:13:38.683Z,99548.16
2023-03-27T12:16:58.481Z,99549.02
2023-03-27T12:19:53.280Z,99547.98
2023-03-27T12:23:16.358Z,99542.98
2023-03-27T12:26:22.595Z,99544.02
2023-03-27T12:29:38.783Z,99537.04
2023-03-27T12:33:09.725Z,99547.48
2023-03-27T12:35:57.992Z,99547.65
2023-03-27T12:38:42.921Z,99552.99
2023-03-27T12:41:33.380Z,99553.54
2023-03-27T12:44:18.849Z,99554.78
2023-03-27T12:47:14.930Z,99560.73
2023-03-27T12:49:58.786Z,99560.97
2023-03-27T12:52:38.765Z,99562.73
2023-03-27T12:55:19.420Z,99559.67
2023-03-27T12:57:52.667Z,99563.58
2023-03-27T13:00:33.459Z,99560.31
2023-03-27T13:03:49.092Z,99563.21
2023-03-27T13:07:01.131Z,99569.65
2023-03-27T13:09:45.390Z,99572.70
2023-03-27T13:12:50.623Z,99583.42
2023-03-27T13:16:12.598Z,99582.58
2023-03-27T13:19:34.041Z,99589.32
2023-03-27T13:22:41.897Z,99590.65
2023-03-27T13:25:47.029Z,99593.75
2023-03-27T13:28:39.113Z,99600.45
2023-03-27T13:31:49.653Z,99606.73
2023-03-27T13:34:41.814Z,99612.14
2023-03-27T13:37:17.851Z,99603.55
2023-03-27T13:40:02.850Z,99618.85
2023-03-27T13:42:47.850Z,99619.21
2023-03-27T13:46:00.576Z,99617.30
2023-03-27T13:48:50.882Z,99628.35
2023-03-27T13:52:13.402Z,99635.09
2023-03-27T13:55:19.286Z,99641.34
2023-03-27T13:58:33.440Z,99639.82
2023-03-27T14:01:45.911Z,99645.09
2023-03-27T14:04:53.803Z,99646.11
2023-03-27T14:07:56.887Z,99659.70
2023-03-27T14:10:40.895Z,99667.52
2023-03-27T14:13:40.468Z,99671.62
2023-03-27T14:16:38.045Z,99687.92
2023-03-27T14:19:52.260Z,99693.27
2023-03-27T14:22:57.449Z,99703.66
2023-03-27T14:25:46.152Z,99705.89
2023-03-27T14:28:59.616Z,99709.31
2023-03-27T14:31:36.188Z,99711.73
2023-03-27T14:34:17.477Z,99722.16
2023-03-27T14:36:52.309Z,99726.63
2023-03-27T14:39:28.212Z,99733.86
2023-03-27T14:42:03.715Z,99735.84
2023-03-27T14:44:39.381Z,99737.35
2023-03-27T14:47:27.452Z,99740.67
2023-03-27T14:50:02.198Z,99750.91
2023-03-27T14:52:39.822Z,99763.64
2023-03-27T14:55:19.145Z,99772.39
2023-03-27T14:57:59.286Z,99780.13
2023-03-27T15:00:39.943Z,99783.10
2023-03-27T15:03:26.953Z,99783.42
2023-03-27T15:06:15.738Z,99776.98
2023-03-27T15:09:00.062Z,99794.23
2023-03-27T15:11:44.692Z,99792.08
2023-03-27T15:14:29.684Z,99803.59
2023-03-27T15:17:19.588Z,99812.13
2023-03-27T15:20:14.858Z,99820.58
2023-03-27T15:23:08.848Z,99825.64
2023-03-27T15:25:59.134Z,99829.17
2023-03-27T15:29:05.391Z,99846.52
2023-03-27T15:31:49.619Z,99856.05
2023-03-27T15:34:35.004Z,99860.22
2023-03-27T15:37:23.953Z,99870.08
2023-03-27T15:40:15.960Z,99869.08
2023-03-27T15:43:03.581Z,99877.92
2023-03-27T15:46:23.001Z,99872.41
2023-03-27T15:49:30.386Z,99875.95
2023-03-27T15:52:34.556Z,99880.36
2023-03-27T15:55:14.271Z,99888.27
2023-03-27T15:57:52.124Z,99891.73
2023-03-27T16:00:31.965Z,99893.05
2023-03-27T16:03:17.763Z,99897.70
2023-03-27T16:06:01.783Z,99904.29
2023-03-27T16:08:43.730Z,99905.74
2023-03-27T16:11:47.885Z,99914.95
2023-03-27T16:14:34.537Z,99914.23
2023-03-27T16:17:22.094Z,99921.58
2023-03-27T16:20:27.289Z,99926.98
2023-03-27T16:23:07.684Z,99934.48
2023-03-27T16:25:48.876Z,99937.86
2023-03-27T16:28:23.534Z,99940.59
2023-03-27T16:31:00.915Z,99945.40
2023-03-27T16:33:38.777Z,99948.26
2023-03-27T16:36:27.636Z,99956.75
2023-03-27T16:39:07.426Z,99964.68
2023-03-27T16:41:44.880Z,99966.52
2023-03-27T16:44:22.436Z,99970.99
2023-03-27T16:46:59.925Z,99981.38
2023-03-27T16:49:31.786Z,99986.43
2023-03-27T16:52:05.098Z,99996.06
2023-03-27T16:54:43.120Z,99995.43
2023-03-27T16:57:22.049Z,100004.14
2023-03-27T16:59:55.097Z,100007.71
2023-03-27T17:02:36.841Z,100017.96
2023-03-27T17:05:16.570Z,100019.96
2023-03-27T17:07:52.934Z,100027.86
2023-03-27T17:10:31.619Z,100034.67
2023-03-27T17:13:10.493Z,100039.16
2023-03-27T17:15:51.607Z,100043.55
2023-03-27T17:18:30.103Z,100049.11
2023-03-27T17:21:09.392Z,100054.64
2023-03-27T17:23:49.134Z,100058.02
2023-03-27T17:26:31.604Z,100053.56
2023-03-27T17:29:15.273Z,100056.13
2023-03-27T17:31:53.891Z,100061.81
2023-03-27T17:34:32.435Z,100064.62
2023-03-27T17:37:12.890Z,100064.41
2023-03-27T17:39:51.157Z,100071.80
2023-03-27T17:42:29.890Z,100074.48
2023-03-27T17:45:00.610Z,100081.21
2023-03-27T17:47:36.689Z,100081.54
2023-03-27T17:50:08.832Z,100085.81
2023-03-27T17:52:45.515Z,100092.11
2023-03-27T17:55:24.027Z,100098.36
2023-03-27T17:58:09.421Z,100101.47
2023-03-27T18:00:45.886Z,100103.39
2023-03-27T18:03:26.049Z,100112.07
2023-03-27T18:06:05.740Z,100119.90
2023-03-27T18:08:44.443Z,100123.81
2023-03-27T18:11:23.354Z,100128.48
2023-03-27T18:14:00.801Z,100130.74
2023-03-27T18:16:38.479Z,100132.70
2023-03-27T18:19:17.765Z,100133.82
2023-03-27T18:21:56.107Z,100138.35
2023-03-27T18:24:34.962Z,100139.99
2023-03-27T18:27:13.632Z,100146.52
2023-03-27T18:29:51.609Z,100153.70
2023-03-27T18:32:29.529Z,100155.27
2023-03-27T18:35:01.168Z,100158.81
2023-03-27T18:37:40.493Z,100161.33
2023-03-27T18:40:20.671Z,100163.44
2023-03-27T18:42:59.573Z,100163.70
2023-03-27T18:45:31.958Z,100172.59
2023-03-27T18:48:08.672Z,100174.75
2023-03-27T18:50:46.096Z,100180.10
2023-03-27T18:53:24.717Z,100180.80
2023-03-27T18:56:03.790Z,100190.07
2023-03-27T18:58:42.528Z,100188.70
2023-03-27T19:01:20.084Z,100189.34
2023-03-27T19:03:57.671Z,100186.96
2023-03-27T19:06:37.085Z,100189.95
2023-03-27T19:09:14.647Z,100193.73
2023-03-27T19:11:55.840Z,100196.77
2023-03-27T19:14:33.615Z,100201.29
2023-03-27T19:17:16.230Z,100198.98
2023-03-27T19:19:54.833Z,100203.73
2023-03-27T19:22:31.952Z,100200.14
2023-03-27T19:25:09.668Z,100197.52
2023-03-27T19:27:47.623Z,100199.02
2023-03-27T19:30:25.376Z,100199.58
2023-03-27T19:33:04.810Z,100199.71
2023-03-27T19:35:43.227Z,100204.23
2023-03-27T19:38:16.960Z,100209.52
2023-03-27T19:40:50.374Z,100208.73
2023-03-27T19:43:28.574Z,100215.07
2023-03-27T19:46:15.818Z,100219.35
2023-03-27T19:48:50.458Z,100218.65
2023-03-27T19:51:28.547Z,100219.92
2023-03-27T19:54:06.121Z,100219.30
2023-03-27T19:56:43.044Z,100219.39
2023-03-27T19:59:28.195Z,100220.35
2023-03-27T20:02:08.510Z,100224.06
2023-03-27T20:04:45.430Z,100231.02
2023-03-27T20:07:22.885Z,100232.25
2023-03-27T20:10:00.021Z,100231.86
2023-03-27T20:12:37.407Z,100234.81
2023-03-27T20:15:14.820Z,100241.41
2023-03-27T20:17:52.777Z,100246.90
2023-03-27T20:20:29.748Z,100249.41
2023-03-27T20:23:06.882Z,100247.77
2023-03-27T20:25:44.495Z,100248.41
2023-03-27T20:28:14.865Z,100252.73
2023-03-27T20:30:50.145Z,100254.59
2023-03-27T20:33:27.126Z,100255.66
2023-03-27T20:36:04.994Z,100260.30
2023-03-27T20:38:42.090Z,100264.89
2023-03-27T20:41:20.294Z,100264.94
2023-03-27T20:44:00.398Z,100267.71
2023-03-27T20:46:39.521Z,100265.11
2023-03-27T20:52:05.933Z,100264.19
2023-03-27T20:54:44.117Z,100267.31
2023-03-27T20:57:22.578Z,100264.66
2023-03-27T20:59:59.217Z,100263.21
2023-03-27T21:02:36.809Z,100266.69
2023-03-27T21:05:14.309Z,100265.96
2023-03-27T21:07:53.175Z,100267.60
2023-03-27T21:10:30.245Z,100266.08
2023-03-27T21:13:08.299Z,100268.63
2023-03-27T21:15:39.395Z,100266.56
2023-03-27T21:18:12.150Z,100263.86
2023-03-27T21:20:49.474Z,100267.70
2023-03-27T21:23:27.031Z,100267.80
2023-03-27T21:26:04.364Z,100269.00
2023-03-27T21:28:41.068Z,100266.85
2023-03-27T21:31:15.918Z,100263.17
2023-03-27T21:33:46.946Z,100262.52
2023-03-27T21:36:18.015Z,100260.14
2023-03-27T21:38:51.732Z,100264.45
2023-03-27T21:41:31.233Z,100261.52
2023-03-27T21:44:09.044Z,100261.52
2023-03-27T21:46:46.943Z,100263.80
2023-03-27T21:49:25.852Z,100264.28
2023-03-27T21:52:02.355Z,100263.32
2023-03-27T21:54:32.989Z,100257.80
2023-03-27T21:57:11.308Z,100257.96
2023-03-27T21:59:48.717Z,100256.33
2023-03-27T22:02:18.691Z,100252.92
2023-03-27T22:04:53.792Z,100253.71
2023-03-27T22:07:31.325Z,100252.80
2023-03-27T22:10:09.886Z,100256.08
2023-03-27T22:12:47.245Z,100255.01
2023-03-27T22:15:24.849Z,100257.19
2023-03-27T22:18:02.067Z,100257.14
2023-03-27T22:20:39.099Z,100256.45
2023-03-27T22:23:16.473Z,100252.42
2023-03-27T22:26:01.628Z,100254.74
2023-03-27T22:28:38.924Z,100254.89
2023-03-27T22:31:11.267Z,100259.67
2023-03-27T22:33:51.604Z,100259.61
2023-03-27T22:36:28.377Z,100258.48
2023-03-27T22:39:06.158Z,100257.57
2023-03-27T22:41:43.449Z,100255.89
2023-03-27T22:44:14.323Z,100258.13
2023-03-27T22:46:48.577Z,100251.44
2023-03-27T22:49:26.748Z,100247.27
2023-03-27T22:52:03.316Z,100247.65
2023-03-27T22:54:34.252Z,100245.90
2023-03-27T22:57:12.081Z,100246.95
2023-03-27T22:59:48.845Z,100242.16
2023-03-27T23:02:25.476Z,100237.06
2023-03-27T23:05:03.300Z,100245.69
2023-03-27T23:07:33.919Z,100247.68
2023-03-27T23:10:09.974Z,100248.87
2023-03-27T23:12:47.140Z,100257.25
2023-03-27T23:15:30.309Z,100263.70
2023-03-27T23:18:09.741Z,100260.74
2023-03-27T23:20:48.234Z,100267.54
2023-03-27T23:23:25.948Z,100273.19
2023-03-27T23:26:03.971Z,100277.98
2023-03-27T23:28:42.722Z,100278.13
2023-03-27T23:31:23.790Z,100265.03
2023-03-27T23:34:02.857Z,100281.34
2023-03-27T23:36:39.912Z,100282.25
2023-03-27T23:39:17.468Z,100287.80
2023-03-27T23:41:50.066Z,100290.44
2023-03-27T23:44:29.453Z,100293.04
2023-03-27T23:47:07.786Z,100290.40
2023-03-27T23:49:42.127Z,100294.02
2023-03-27T23:52:14.532Z,100297.05
2023-03-27T23:54:50.143Z,100297.45
2023-03-27T23:57:26.095Z,100298.84
2023-03-27T23:59:57.034Z,100297.96
